sensor_id;sensor_type;location;lat;lon;timestamp;temperature;humidity
9389;DHT22;4734;52.778;6.798;2023-12-20T00:01:40;6.90;99.90
9389;DHT22;4734;52.778;6.798;2023-12-20T00:04:26;6.90;99.90
9389;DHT22;4734;52.778;6.798;2023-12-20T00:07:13;6.90;99.90
9389;DHT22;4734;52.778;6.798;2023-12-20T00:09:58;6.90;99.90
9389;DHT22;4734;52.778;6.798;2023-12-20T00:12:44;6.90;99.90
9389;DHT22;4734;52.778;6.798;2023-12-20T00:15:29;6.90;99.90
9389;DHT22;4734;52.778;6.798;2023-12-20T00:18:15;6.90;99.90
9389;DHT22;4734;52.778;6.798;2023-12-20T00:21:00;6.90;99.90
9389;DHT22;4734;52.778;6.798;2023-12-20T00:23:47;6.90;99.90
9389;DHT22;4734;52.778;6.798;2023-12-20T00:26:32;6.90;99.90
9389;DHT22;4734;52.778;6.798;2023-12-20T00:29:18;6.90;99.90
9389;DHT22;4734;52.778;6.798;2023-12-20T00:32:04;6.90;99.90
9389;DHT22;4734;52.778;6.798;2023-12-20T00:34:49;6.90;99.90
9389;DHT22;4734;52.778;6.798;2023-12-20T00:37:35;6.90;99.90
9389;DHT22;4734;52.778;6.798;2023-12-20T00:40:22;6.90;99.90
9389;DHT22;4734;52.778;6.798;2023-12-20T00:43:08;6.90;99.90
9389;DHT22;4734;52.778;6.798;2023-12-20T00:45:53;6.90;99.90
9389;DHT22;4734;52.778;6.798;2023-12-20T00:48:39;6.90;99.90
9389;DHT22;4734;52.778;6.798;2023-12-20T00:51:26;6.90;99.90
9389;DHT22;4734;52.778;6.798;2023-12-20T00:54:12;6.80;99.90
9389;DHT22;4734;52.778;6.798;2023-12-20T00:56:58;6.80;99.90
9389;DHT22;4734;52.778;6.798;2023-12-20T00:59:44;6.80;99.90
9389;DHT22;4734;52.778;6.798;2023-12-20T01:02:30;6.80;99.90
9389;DHT22;4734;52.778;6.798;2023-12-20T01:05:15;6.80;99.90
9389;DHT22;4734;52.778;6.798;2023-12-20T01:08:01;6.80;99.90
9389;DHT22;4734;52.778;6.798;2023-12-20T01:10:48;6.80;99.90
9389;DHT22;4734;52.778;6.798;2023-12-20T01:13:35;6.70;99.90
9389;DHT22;4734;52.778;6.798;2023-12-20T01:16:23;6.70;99.90
9389;DHT22;4734;52.778;6.798;2023-12-20T01:19:09;6.70;99.90
9389;DHT22;4734;52.778;6.798;2023-12-20T01:21:54;6.70;99.90
9389;DHT22;4734;52.778;6.798;2023-12-20T01:24:40;6.70;99.90
9389;DHT22;4734;52.778;6.798;2023-12-20T01:27:26;6.70;99.90
9389;DHT22;4734;52.778;6.798;2023-12-20T01:30:14;6.70;99.90
9389;DHT22;4734;52.778;6.798;2023-12-20T01:33:00;6.70;99.90
9389;DHT22;4734;52.778;6.798;2023-12-20T01:35:45;6.70;99.90
9389;DHT22;4734;52.778;6.798;2023-12-20T01:38:31;6.60;99.90
9389;DHT22;4734;52.778;6.798;2023-12-20T01:41:16;6.60;99.90
9389;DHT22;4734;52.778;6.798;2023-12-20T01:44:02;6.60;99.90
9389;DHT22;4734;52.778;6.798;2023-12-20T01:46:49;6.60;99.90
9389;DHT22;4734;52.778;6.798;2023-12-20T01:49:35;6.60;99.90
9389;DHT22;4734;52.778;6.798;2023-12-20T01:52:21;6.60;99.90
9389;DHT22;4734;52.778;6.798;2023-12-20T01:55:07;6.60;99.90
9389;DHT22;4734;52.778;6.798;2023-12-20T01:57:57;6.60;99.90
9389;DHT22;4734;52.778;6.798;2023-12-20T02:00:44;6.60;99.90
9389;DHT22;4734;52.778;6.798;2023-12-20T02:03:30;6.60;99.90
9389;DHT22;4734;52.778;6.798;2023-12-20T02:06:17;6.60;99.90
9389;DHT22;4734;52.778;6.798;2023-12-20T02:09:03;6.60;99.90
9389;DHT22;4734;52.778;6.798;2023-12-20T02:11:49;6.60;99.90
9389;DHT22;4734;52.778;6.798;2023-12-20T02:14:35;6.60;99.90
9389;DHT22;4734;52.778;6.798;2023-12-20T02:17:20;6.60;99.90
9389;DHT22;4734;52.778;6.798;2023-12-20T02:20:08;6.60;99.90
9389;DHT22;4734;52.778;6.798;2023-12-20T02:22:54;6.50;99.90
9389;DHT22;4734;52.778;6.798;2023-12-20T02:25:40;6.50;99.90
9389;DHT22;4734;52.778;6.798;2023-12-20T02:28:26;6.50;99.90
9389;DHT22;4734;52.778;6.798;2023-12-20T02:31:13;6.50;99.90
9389;DHT22;4734;52.778;6.798;2023-12-20T02:33:58;6.50;99.90
9389;DHT22;4734;52.778;6.798;2023-12-20T02:36:44;6.50;99.90
9389;DHT22;4734;52.778;6.798;2023-12-20T02:39:31;6.50;99.90
9389;DHT22;4734;52.778;6.798;2023-12-20T02:42:17;6.50;99.90
9389;DHT22;4734;52.778;6.798;2023-12-20T02:45:04;6.50;99.90
9389;DHT22;4734;52.778;6.798;2023-12-20T02:47:49;6.60;99.90
9389;DHT22;4734;52.778;6.798;2023-12-20T02:50:34;6.60;99.90
9389;DHT22;4734;52.778;6.798;2023-12-20T02:53:20;6.60;99.90
9389;DHT22;4734;52.778;6.798;2023-12-20T02:56:07;6.60;99.90
9389;DHT22;4734;52.778;6.798;2023-12-20T02:58:53;6.60;99.90
9389;DHT22;4734;52.778;6.798;2023-12-20T03:01:42;6.60;99.90
9389;DHT22;4734;52.778;6.798;2023-12-20T03:04:28;6.60;99.90
9389;DHT22;4734;52.778;6.798;2023-12-20T03:07:13;6.60;99.90
9389;DHT22;4734;52.778;6.798;2023-12-20T03:09:59;6.70;99.90
9389;DHT22;4734;52.778;6.798;2023-12-20T03:12:46;6.60;99.90
9389;DHT22;4734;52.778;6.798;2023-12-20T03:15:31;6.60;99.90
9389;DHT22;4734;52.778;6.798;2023-12-20T03:18:17;6.60;99.90
9389;DHT22;4734;52.778;6.798;2023-12-20T03:21:03;6.70;99.90
9389;DHT22;4734;52.778;6.798;2023-12-20T03:23:49;6.70;99.90
9389;DHT22;4734;52.778;6.798;2023-12-20T03:26:34;6.70;99.90
9389;DHT22;4734;52.778;6.798;2023-12-20T03:29:21;6.60;99.90
9389;DHT22;4734;52.778;6.798;2023-12-20T03:32:07;6.60;99.90
9389;DHT22;4734;52.778;6.798;2023-12-20T03:34:52;6.60;99.90
9389;DHT22;4734;52.778;6.798;2023-12-20T03:37:38;6.60;99.90
9389;DHT22;4734;52.778;6.798;2023-12-20T03:40:23;6.70;99.90
9389;DHT22;4734;52.778;6.798;2023-12-20T03:43:09;6.70;99.90
9389;DHT22;4734;52.778;6.798;2023-12-20T03:45:56;6.70;99.90
9389;DHT22;4734;52.778;6.798;2023-12-20T03:48:42;6.70;99.90
9389;DHT22;4734;52.778;6.798;2023-12-20T03:51:28;6.70;99.90
9389;DHT22;4734;52.778;6.798;2023-12-20T03:54:14;6.70;99.90
9389;DHT22;4734;52.778;6.798;2023-12-20T03:56:59;6.70;99.90
9389;DHT22;4734;52.778;6.798;2023-12-20T03:59:45;6.60;99.90
9389;DHT22;4734;52.778;6.798;2023-12-20T04:02:32;6.70;99.90
9389;DHT22;4734;52.778;6.798;2023-12-20T04:05:18;6.70;99.90
9389;DHT22;4734;52.778;6.798;2023-12-20T04:08:04;6.70;99.90
9389;DHT22;4734;52.778;6.798;2023-12-20T04:10:50;6.70;99.90
9389;DHT22;4734;52.778;6.798;2023-12-20T04:13:35;6.70;99.90
9389;DHT22;4734;52.778;6.798;2023-12-20T04:16:21;6.70;99.90
9389;DHT22;4734;52.778;6.798;2023-12-20T04:19:07;6.70;99.90
9389;DHT22;4734;52.778;6.798;2023-12-20T04:21:53;6.70;99.90
9389;DHT22;4734;52.778;6.798;2023-12-20T04:24:38;6.70;99.90
9389;DHT22;4734;52.778;6.798;2023-12-20T04:27:26;6.70;99.90
9389;DHT22;4734;52.778;6.798;2023-12-20T04:30:12;6.70;99.90
9389;DHT22;4734;52.778;6.798;2023-12-20T04:32:58;6.70;99.90
9389;DHT22;4734;52.778;6.798;2023-12-20T04:35:45;6.70;99.90
9389;DHT22;4734;52.778;6.798;2023-12-20T04:38:30;6.70;99.90
9389;DHT22;4734;52.778;6.798;2023-12-20T04:41:16;6.70;99.90
9389;DHT22;4734;52.778;6.798;2023-12-20T04:44:03;6.70;99.90
9389;DHT22;4734;52.778;6.798;2023-12-20T04:46:48;6.70;99.90
9389;DHT22;4734;52.778;6.798;2023-12-20T04:49:34;6.70;99.90
9389;DHT22;4734;52.778;6.798;2023-12-20T04:52:21;6.70;99.90
9389;DHT22;4734;52.778;6.798;2023-12-20T04:55:06;6.70;99.90
9389;DHT22;4734;52.778;6.798;2023-12-20T04:57:52;6.70;99.90
9389;DHT22;4734;52.778;6.798;2023-12-20T05:00:38;6.70;99.90
9389;DHT22;4734;52.778;6.798;2023-12-20T05:03:24;6.70;99.90
9389;DHT22;4734;52.778;6.798;2023-12-20T05:06:10;6.80;99.90
9389;DHT22;4734;52.778;6.798;2023-12-20T05:08:56;6.70;99.90
9389;DHT22;4734;52.778;6.798;2023-12-20T05:11:42;6.70;99.90
9389;DHT22;4734;52.778;6.798;2023-12-20T05:14:27;6.80;99.90
9389;DHT22;4734;52.778;6.798;2023-12-20T05:17:13;6.80;99.90
9389;DHT22;4734;52.778;6.798;2023-12-20T05:19:59;6.80;99.90
9389;DHT22;4734;52.778;6.798;2023-12-20T05:22:44;6.80;99.90
9389;DHT22;4734;52.778;6.798;2023-12-20T05:25:31;6.80;99.90
9389;DHT22;4734;52.778;6.798;2023-12-20T05:28:17;6.80;99.90
9389;DHT22;4734;52.778;6.798;2023-12-20T05:31:03;6.80;99.90
9389;DHT22;4734;52.778;6.798;2023-12-20T05:33:48;6.80;99.90
9389;DHT22;4734;52.778;6.798;2023-12-20T05:36:35;6.80;99.90
9389;DHT22;4734;52.778;6.798;2023-12-20T05:39:21;6.80;99.90
9389;DHT22;4734;52.778;6.798;2023-12-20T05:42:08;6.80;99.90
9389;DHT22;4734;52.778;6.798;2023-12-20T05:44:53;6.80;99.90
9389;DHT22;4734;52.778;6.798;2023-12-20T05:47:39;6.80;99.90
9389;DHT22;4734;52.778;6.798;2023-12-20T05:50:24;6.80;99.90
9389;DHT22;4734;52.778;6.798;2023-12-20T05:53:10;6.90;99.90
9389;DHT22;4734;52.778;6.798;2023-12-20T05:55:56;6.90;99.90
9389;DHT22;4734;52.778;6.798;2023-12-20T05:58:42;6.90;99.90
9389;DHT22;4734;52.778;6.798;2023-12-20T06:01:29;6.90;99.90
9389;DHT22;4734;52.778;6.798;2023-12-20T06:04:14;6.90;99.90
9389;DHT22;4734;52.778;6.798;2023-12-20T06:07:00;6.90;99.90
9389;DHT22;4734;52.778;6.798;2023-12-20T06:09:45;6.90;99.90
9389;DHT22;4734;52.778;6.798;2023-12-20T06:12:31;6.90;99.90
9389;DHT22;4734;52.778;6.798;2023-12-20T06:15:19;6.90;99.90
9389;DHT22;4734;52.778;6.798;2023-12-20T06:18:04;7.00;99.90
9389;DHT22;4734;52.778;6.798;2023-12-20T06:20:50;7.00;99.90
9389;DHT22;4734;52.778;6.798;2023-12-20T06:23:35;7.00;99.90
9389;DHT22;4734;52.778;6.798;2023-12-20T06:26:21;7.00;99.90
9389;DHT22;4734;52.778;6.798;2023-12-20T06:29:06;7.00;99.90
9389;DHT22;4734;52.778;6.798;2023-12-20T06:31:53;7.00;99.90
9389;DHT22;4734;52.778;6.798;2023-12-20T06:34:39;7.00;99.90
9389;DHT22;4734;52.778;6.798;2023-12-20T06:37:25;7.00;99.90
9389;DHT22;4734;52.778;6.798;2023-12-20T06:40:11;7.00;99.90
9389;DHT22;4734;52.778;6.798;2023-12-20T06:42:56;7.00;99.90
9389;DHT22;4734;52.778;6.798;2023-12-20T06:45:43;7.10;99.90
9389;DHT22;4734;52.778;6.798;2023-12-20T06:48:30;7.10;99.90
9389;DHT22;4734;52.778;6.798;2023-12-20T06:51:16;7.10;99.90
9389;DHT22;4734;52.778;6.798;2023-12-20T06:54:04;7.10;99.90
9389;DHT22;4734;52.778;6.798;2023-12-20T06:56:49;7.10;99.90
9389;DHT22;4734;52.778;6.798;2023-12-20T06:59:38;7.10;99.90
9389;DHT22;4734;52.778;6.798;2023-12-20T07:02:23;7.10;99.90
9389;DHT22;4734;52.778;6.798;2023-12-20T07:05:10;7.10;99.90
9389;DHT22;4734;52.778;6.798;2023-12-20T07:07:56;7.10;99.90
9389;DHT22;4734;52.778;6.798;2023-12-20T07:10:41;7.10;99.90
9389;DHT22;4734;52.778;6.798;2023-12-20T07:13:27;7.20;99.90
9389;DHT22;4734;52.778;6.798;2023-12-20T07:16:13;7.20;99.90
9389;DHT22;4734;52.778;6.798;2023-12-20T07:18:58;7.20;99.90
9389;DHT22;4734;52.778;6.798;2023-12-20T07:21:45;7.20;99.90
9389;DHT22;4734;52.778;6.798;2023-12-20T07:24:31;7.20;99.90
9389;DHT22;4734;52.778;6.798;2023-12-20T07:27:17;7.20;99.90
9389;DHT22;4734;52.778;6.798;2023-12-20T07:30:03;7.20;99.90
9389;DHT22;4734;52.778;6.798;2023-12-20T07:32:48;7.20;99.90
9389;DHT22;4734;52.778;6.798;2023-12-20T07:35:34;7.20;99.90
9389;DHT22;4734;52.778;6.798;2023-12-20T07:38:21;7.20;99.90
9389;DHT22;4734;52.778;6.798;2023-12-20T07:41:06;7.20;99.90
9389;DHT22;4734;52.778;6.798;2023-12-20T07:43:54;7.20;99.90
9389;DHT22;4734;52.778;6.798;2023-12-20T07:46:40;7.20;99.90
9389;DHT22;4734;52.778;6.798;2023-12-20T07:49:26;7.20;99.90
9389;DHT22;4734;52.778;6.798;2023-12-20T07:52:11;7.20;99.90
9389;DHT22;4734;52.778;6.798;2023-12-20T08:27:06;7.30;99.90
9389;DHT22;4734;52.778;6.798;2023-12-20T08:34:10;7.30;99.90
9389;DHT22;4734;52.778;6.798;2023-12-20T09:05:06;7.50;99.90
9389;DHT22;4734;52.778;6.798;2023-12-20T09:08:01;7.50;99.90
9389;DHT22;4734;52.778;6.798;2023-12-20T09:10:47;7.50;99.90
9389;DHT22;4734;52.778;6.798;2023-12-20T09:13:33;7.50;99.90
9389;DHT22;4734;52.778;6.798;2023-12-20T09:16:19;7.50;99.90
9389;DHT22;4734;52.778;6.798;2023-12-20T09:19:04;7.50;99.90
9389;DHT22;4734;52.778;6.798;2023-12-20T09:21:50;7.50;99.90
9389;DHT22;4734;52.778;6.798;2023-12-20T09:24:37;7.60;99.90
9389;DHT22;4734;52.778;6.798;2023-12-20T09:27:24;7.60;99.90
9389;DHT22;4734;52.778;6.798;2023-12-20T09:30:11;7.60;99.90
9389;DHT22;4734;52.778;6.798;2023-12-20T09:32:57;7.60;99.90
9389;DHT22;4734;52.778;6.798;2023-12-20T09:35:43;7.60;99.90
9389;DHT22;4734;52.778;6.798;2023-12-20T09:38:28;7.60;99.90
9389;DHT22;4734;52.778;6.798;2023-12-20T09:41:15;7.60;99.90
9389;DHT22;4734;52.778;6.798;2023-12-20T09:58:16;7.70;99.90
9389;DHT22;4734;52.778;6.798;2023-12-20T10:22:38;7.70;99.90
9389;DHT22;4734;52.778;6.798;2023-12-20T10:25:43;7.70;99.90
9389;DHT22;4734;52.778;6.798;2023-12-20T10:28:54;7.80;99.90
9389;DHT22;4734;52.778;6.798;2023-12-20T10:32:41;7.70;99.90
9389;DHT22;4734;52.778;6.798;2023-12-20T10:36:38;7.80;99.90
9389;DHT22;4734;52.778;6.798;2023-12-20T11:02:34;7.70;99.90
9389;DHT22;4734;52.778;6.798;2023-12-20T11:36:22;7.70;99.90
9389;DHT22;4734;52.778;6.798;2023-12-20T11:39:36;7.70;99.90
9389;DHT22;4734;52.778;6.798;2023-12-20T12:37:25;7.80;99.90
9389;DHT22;4734;52.778;6.798;2023-12-20T12:40:34;7.80;99.90
9389;DHT22;4734;52.778;6.798;2023-12-20T12:43:25;7.80;99.90
9389;DHT22;4734;52.778;6.798;2023-12-20T12:46:14;7.80;99.90
9389;DHT22;4734;52.778;6.798;2023-12-20T13:07:22;7.80;99.90
9389;DHT22;4734;52.778;6.798;2023-12-20T13:11:04;7.80;99.90
9389;DHT22;4734;52.778;6.798;2023-12-20T13:17:43;7.80;99.90
9389;DHT22;4734;52.778;6.798;2023-12-20T13:20:30;7.80;99.90
9389;DHT22;4734;52.778;6.798;2023-12-20T13:23:16;7.80;99.90
9389;DHT22;4734;52.778;6.798;2023-12-20T13:26:07;7.80;99.90
9389;DHT22;4734;52.778;6.798;2023-12-20T13:28:54;7.80;99.90
9389;DHT22;4734;52.778;6.798;2023-12-20T13:31:40;7.80;99.90
9389;DHT22;4734;52.778;6.798;2023-12-20T13:37:59;7.80;99.90
9389;DHT22;4734;52.778;6.798;2023-12-20T13:40:44;7.80;99.90
9389;DHT22;4734;52.778;6.798;2023-12-20T13:43:31;7.80;99.90
9389;DHT22;4734;52.778;6.798;2023-12-20T13:46:16;7.70;99.90
9389;DHT22;4734;52.778;6.798;2023-12-20T13:49:54;7.80;99.90
9389;DHT22;4734;52.778;6.798;2023-12-20T13:52:34;7.70;99.90
9389;DHT22;4734;52.778;6.798;2023-12-20T13:58:58;7.70;99.90
9389;DHT22;4734;52.778;6.798;2023-12-20T14:02:03;7.70;99.90
9389;DHT22;4734;52.778;6.798;2023-12-20T14:04:48;7.70;99.90
9389;DHT22;4734;52.778;6.798;2023-12-20T14:07:34;7.70;99.90
9389;DHT22;4734;52.778;6.798;2023-12-20T14:10:20;7.60;99.90
9389;DHT22;4734;52.778;6.798;2023-12-20T14:13:05;7.70;99.90
9389;DHT22;4734;52.778;6.798;2023-12-20T14:19:04;7.60;99.90
9389;DHT22;4734;52.778;6.798;2023-12-20T14:21:51;7.60;99.90
9389;DHT22;4734;52.778;6.798;2023-12-20T14:24:36;7.60;99.90
9389;DHT22;4734;52.778;6.798;2023-12-20T14:31:00;7.60;99.90
9389;DHT22;4734;52.778;6.798;2023-12-20T14:33:46;7.60;99.90
9389;DHT22;4734;52.778;6.798;2023-12-20T14:36:33;7.60;99.90
9389;DHT22;4734;52.778;6.798;2023-12-20T14:39:18;7.60;99.90
9389;DHT22;4734;52.778;6.798;2023-12-20T14:42:04;7.50;99.90
9389;DHT22;4734;52.778;6.798;2023-12-20T14:44:50;7.50;99.90
9389;DHT22;4734;52.778;6.798;2023-12-20T14:47:40;7.50;99.90
9389;DHT22;4734;52.778;6.798;2023-12-20T14:50:25;7.50;99.90
9389;DHT22;4734;52.778;6.798;2023-12-20T14:53:11;7.50;99.90
9389;DHT22;4734;52.778;6.798;2023-12-20T14:55:57;7.50;99.90
9389;DHT22;4734;52.778;6.798;2023-12-20T14:58:42;7.50;99.90
9389;DHT22;4734;52.778;6.798;2023-12-20T15:01:28;7.50;99.90
9389;DHT22;4734;52.778;6.798;2023-12-20T15:04:16;7.50;99.90
9389;DHT22;4734;52.778;6.798;2023-12-20T15:07:01;7.50;99.90
9389;DHT22;4734;52.778;6.798;2023-12-20T15:09:49;7.50;99.90
9389;DHT22;4734;52.778;6.798;2023-12-20T15:12:35;7.50;99.90
9389;DHT22;4734;52.778;6.798;2023-12-20T15:15:20;7.50;99.90
9389;DHT22;4734;52.778;6.798;2023-12-20T15:18:06;7.40;99.90
9389;DHT22;4734;52.778;6.798;2023-12-20T15:20:55;7.40;99.90
9389;DHT22;4734;52.778;6.798;2023-12-20T15:23:41;7.40;99.90
9389;DHT22;4734;52.778;6.798;2023-12-20T15:26:38;7.40;99.90
9389;DHT22;4734;52.778;6.798;2023-12-20T15:29:23;7.40;99.90
9389;DHT22;4734;52.778;6.798;2023-12-20T15:32:09;7.40;99.90
9389;DHT22;4734;52.778;6.798;2023-12-20T15:34:54;7.40;99.90
9389;DHT22;4734;52.778;6.798;2023-12-20T15:37:41;7.40;99.90
9389;DHT22;4734;52.778;6.798;2023-12-20T15:40:27;7.40;99.90
9389;DHT22;4734;52.778;6.798;2023-12-20T15:43:12;7.40;99.90
9389;DHT22;4734;52.778;6.798;2023-12-20T15:45:58;7.40;99.90
9389;DHT22;4734;52.778;6.798;2023-12-20T15:48:44;7.40;99.90
9389;DHT22;4734;52.778;6.798;2023-12-20T15:51:29;7.40;99.90
9389;DHT22;4734;52.778;6.798;2023-12-20T15:54:16;7.40;99.90
9389;DHT22;4734;52.778;6.798;2023-12-20T15:57:02;7.30;99.90
9389;DHT22;4734;52.778;6.798;2023-12-20T15:59:47;7.40;99.90
9389;DHT22;4734;52.778;6.798;2023-12-20T16:02:34;7.40;99.90
9389;DHT22;4734;52.778;6.798;2023-12-20T16:05:20;7.40;99.90
9389;DHT22;4734;52.778;6.798;2023-12-20T16:08:06;7.30;99.90
9389;DHT22;4734;52.778;6.798;2023-12-20T16:10:53;7.40;99.90
9389;DHT22;4734;52.778;6.798;2023-12-20T16:13:39;7.40;99.90
9389;DHT22;4734;52.778;6.798;2023-12-20T16:16:24;7.40;99.90
9389;DHT22;4734;52.778;6.798;2023-12-20T16:19:10;7.40;99.90
9389;DHT22;4734;52.778;6.798;2023-12-20T16:21:55;7.40;99.90
9389;DHT22;4734;52.778;6.798;2023-12-20T16:24:41;7.40;99.90
9389;DHT22;4734;52.778;6.798;2023-12-20T16:27:28;7.40;99.90
9389;DHT22;4734;52.778;6.798;2023-12-20T16:30:14;7.40;99.90
9389;DHT22;4734;52.778;6.798;2023-12-20T16:33:00;7.40;99.90
9389;DHT22;4734;52.778;6.798;2023-12-20T16:35:45;7.40;99.90
9389;DHT22;4734;52.778;6.798;2023-12-20T16:38:31;7.40;99.90
9389;DHT22;4734;52.778;6.798;2023-12-20T16:41:16;7.50;99.90
9389;DHT22;4734;52.778;6.798;2023-12-20T16:44:03;7.50;99.90
9389;DHT22;4734;52.778;6.798;2023-12-20T16:46:49;7.50;99.90
9389;DHT22;4734;52.778;6.798;2023-12-20T16:49:34;7.50;99.90
9389;DHT22;4734;52.778;6.798;2023-12-20T16:52:20;7.50;99.90
9389;DHT22;4734;52.778;6.798;2023-12-20T16:55:09;7.50;99.90
9389;DHT22;4734;52.778;6.798;2023-12-20T16:57:55;7.60;99.90
9389;DHT22;4734;52.778;6.798;2023-12-20T17:00:45;7.50;99.90
9389;DHT22;4734;52.778;6.798;2023-12-20T17:03:30;7.50;99.90
9389;DHT22;4734;52.778;6.798;2023-12-20T17:06:16;7.60;99.90
9389;DHT22;4734;52.778;6.798;2023-12-20T17:09:01;7.60;99.90
9389;DHT22;4734;52.778;6.798;2023-12-20T17:11:47;7.60;99.90
9389;DHT22;4734;52.778;6.798;2023-12-20T17:14:32;7.60;99.90
9389;DHT22;4734;52.778;6.798;2023-12-20T17:17:19;7.60;99.90
9389;DHT22;4734;52.778;6.798;2023-12-20T17:20:06;7.60;99.90
9389;DHT22;4734;52.778;6.798;2023-12-20T17:22:52;7.60;99.90
9389;DHT22;4734;52.778;6.798;2023-12-20T17:25:37;7.60;99.90
9389;DHT22;4734;52.778;6.798;2023-12-20T17:28:24;7.60;99.90
9389;DHT22;4734;52.778;6.798;2023-12-20T17:31:10;7.60;99.90
9389;DHT22;4734;52.778;6.798;2023-12-20T17:33:57;7.60;99.90
9389;DHT22;4734;52.778;6.798;2023-12-20T17:36:42;7.60;99.90
9389;DHT22;4734;52.778;6.798;2023-12-20T17:39:30;7.60;99.90
9389;DHT22;4734;52.778;6.798;2023-12-20T17:42:15;7.70;99.90
9389;DHT22;4734;52.778;6.798;2023-12-20T17:45:01;7.60;99.90
9389;DHT22;4734;52.778;6.798;2023-12-20T17:47:46;7.70;99.90
9389;DHT22;4734;52.778;6.798;2023-12-20T17:50:33;7.70;99.90
9389;DHT22;4734;52.778;6.798;2023-12-20T17:53:19;7.70;99.90
9389;DHT22;4734;52.778;6.798;2023-12-20T17:56:05;7.70;99.90
9389;DHT22;4734;52.778;6.798;2023-12-20T17:58:51;7.70;99.90
9389;DHT22;4734;52.778;6.798;2023-12-20T18:01:37;7.70;99.90
9389;DHT22;4734;52.778;6.798;2023-12-20T18:04:23;7.70;99.90
9389;DHT22;4734;52.778;6.798;2023-12-20T18:07:12;7.70;99.90
9389;DHT22;4734;52.778;6.798;2023-12-20T18:09:57;7.70;99.90
9389;DHT22;4734;52.778;6.798;2023-12-20T18:12:43;7.70;99.90
9389;DHT22;4734;52.778;6.798;2023-12-20T18:15:28;7.70;99.90
9389;DHT22;4734;52.778;6.798;2023-12-20T18:18:14;7.70;99.90
9389;DHT22;4734;52.778;6.798;2023-12-20T18:20:59;7.80;99.90
9389;DHT22;4734;52.778;6.798;2023-12-20T18:23:47;7.70;99.90
9389;DHT22;4734;52.778;6.798;2023-12-20T18:26:33;7.80;99.90
9389;DHT22;4734;52.778;6.798;2023-12-20T18:29:19;7.80;99.90
9389;DHT22;4734;52.778;6.798;2023-12-20T18:32:05;7.80;99.90
9389;DHT22;4734;52.778;6.798;2023-12-20T18:34:50;7.80;99.90
9389;DHT22;4734;52.778;6.798;2023-12-20T18:37:36;7.80;99.90
9389;DHT22;4734;52.778;6.798;2023-12-20T18:40:24;7.80;99.90
9389;DHT22;4734;52.778;6.798;2023-12-20T18:43:11;7.80;99.90
9389;DHT22;4734;52.778;6.798;2023-12-20T18:45:57;7.80;99.90
9389;DHT22;4734;52.778;6.798;2023-12-20T18:48:43;7.80;99.90
9389;DHT22;4734;52.778;6.798;2023-12-20T18:51:28;7.80;99.90
9389;DHT22;4734;52.778;6.798;2023-12-20T18:54:14;7.80;99.90
9389;DHT22;4734;52.778;6.798;2023-12-20T18:57:04;7.80;99.90
9389;DHT22;4734;52.778;6.798;2023-12-20T18:59:51;7.80;99.90
9389;DHT22;4734;52.778;6.798;2023-12-20T19:02:37;7.90;99.90
9389;DHT22;4734;52.778;6.798;2023-12-20T19:05:22;7.80;99.90
9389;DHT22;4734;52.778;6.798;2023-12-20T19:08:10;7.80;99.90
9389;DHT22;4734;52.778;6.798;2023-12-20T19:10:56;7.80;99.90
9389;DHT22;4734;52.778;6.798;2023-12-20T19:13:43;7.80;99.90
9389;DHT22;4734;52.778;6.798;2023-12-20T19:16:29;7.80;99.90
9389;DHT22;4734;52.778;6.798;2023-12-20T19:19:15;7.90;99.90
9389;DHT22;4734;52.778;6.798;2023-12-20T19:22:00;7.90;99.90
9389;DHT22;4734;52.778;6.798;2023-12-20T19:24:46;7.90;99.90
9389;DHT22;4734;52.778;6.798;2023-12-20T19:27:32;7.90;99.90
9389;DHT22;4734;52.778;6.798;2023-12-20T19:30:19;7.90;99.90
9389;DHT22;4734;52.778;6.798;2023-12-20T19:33:04;8.00;99.90
9389;DHT22;4734;52.778;6.798;2023-12-20T19:35:50;7.90;99.90
9389;DHT22;4734;52.778;6.798;2023-12-20T19:38:36;8.00;99.90
9389;DHT22;4734;52.778;6.798;2023-12-20T19:41:21;8.00;99.90
9389;DHT22;4734;52.778;6.798;2023-12-20T19:44:07;8.00;99.90
9389;DHT22;4734;52.778;6.798;2023-12-20T19:46:54;8.00;99.90
9389;DHT22;4734;52.778;6.798;2023-12-20T19:49:40;8.00;99.90
9389;DHT22;4734;52.778;6.798;2023-12-20T19:52:25;8.00;99.90
9389;DHT22;4734;52.778;6.798;2023-12-20T19:55:12;8.00;99.90
9389;DHT22;4734;52.778;6.798;2023-12-20T19:57:58;8.10;99.90
9389;DHT22;4734;52.778;6.798;2023-12-20T20:00:43;8.10;99.90
9389;DHT22;4734;52.778;6.798;2023-12-20T20:03:31;8.10;99.90
9389;DHT22;4734;52.778;6.798;2023-12-20T20:06:16;8.10;99.90
9389;DHT22;4734;52.778;6.798;2023-12-20T20:09:01;8.10;99.90
9389;DHT22;4734;52.778;6.798;2023-12-20T20:11:48;8.10;99.90
9389;DHT22;4734;52.778;6.798;2023-12-20T20:14:33;8.20;99.90
9389;DHT22;4734;52.778;6.798;2023-12-20T20:17:19;8.20;99.90
9389;DHT22;4734;52.778;6.798;2023-12-20T20:20:07;8.20;99.90
9389;DHT22;4734;52.778;6.798;2023-12-20T20:22:53;8.20;99.90
9389;DHT22;4734;52.778;6.798;2023-12-20T20:25:38;8.20;99.90
9389;DHT22;4734;52.778;6.798;2023-12-20T20:28:24;8.20;99.90
9389;DHT22;4734;52.778;6.798;2023-12-20T20:31:12;8.20;99.90
9389;DHT22;4734;52.778;6.798;2023-12-20T20:33:58;8.20;99.90
9389;DHT22;4734;52.778;6.798;2023-12-20T20:36:44;8.30;99.90
9389;DHT22;4734;52.778;6.798;2023-12-20T20:39:30;8.30;99.90
9389;DHT22;4734;52.778;6.798;2023-12-20T20:42:16;8.30;99.90
9389;DHT22;4734;52.778;6.798;2023-12-20T20:45:01;8.30;99.90
9389;DHT22;4734;52.778;6.798;2023-12-20T20:47:47;8.30;99.90
9389;DHT22;4734;52.778;6.798;2023-12-20T20:50:33;8.30;99.90
9389;DHT22;4734;52.778;6.798;2023-12-20T20:53:19;8.30;99.90
9389;DHT22;4734;52.778;6.798;2023-12-20T20:56:09;8.30;99.90
9389;DHT22;4734;52.778;6.798;2023-12-20T20:58:54;8.40;99.90
9389;DHT22;4734;52.778;6.798;2023-12-20T21:01:40;8.40;99.90
9389;DHT22;4734;52.778;6.798;2023-12-20T21:04:26;8.40;99.90
9389;DHT22;4734;52.778;6.798;2023-12-20T21:07:12;8.40;99.90
9389;DHT22;4734;52.778;6.798;2023-12-20T21:09:59;8.40;99.90
9389;DHT22;4734;52.778;6.798;2023-12-20T21:12:45;8.40;99.90
9389;DHT22;4734;52.778;6.798;2023-12-20T21:15:30;8.40;99.90
9389;DHT22;4734;52.778;6.798;2023-12-20T21:18:16;8.40;99.90
9389;DHT22;4734;52.778;6.798;2023-12-20T21:21:02;8.50;99.90
9389;DHT22;4734;52.778;6.798;2023-12-20T21:23:47;8.50;99.90
9389;DHT22;4734;52.778;6.798;2023-12-20T21:26:34;8.50;99.90
9389;DHT22;4734;52.778;6.798;2023-12-20T21:29:19;8.50;99.90
9389;DHT22;4734;52.778;6.798;2023-12-20T21:32:05;8.50;99.90
9389;DHT22;4734;52.778;6.798;2023-12-20T21:34:51;8.50;99.90
9389;DHT22;4734;52.778;6.798;2023-12-20T21:37:37;8.50;99.90
9389;DHT22;4734;52.778;6.798;2023-12-20T21:40:24;8.50;99.90
9389;DHT22;4734;52.778;6.798;2023-12-20T21:43:11;8.60;99.90
9389;DHT22;4734;52.778;6.798;2023-12-20T21:45:57;8.60;99.90
9389;DHT22;4734;52.778;6.798;2023-12-20T21:48:43;8.60;99.90
9389;DHT22;4734;52.778;6.798;2023-12-20T21:51:28;8.60;99.90
9389;DHT22;4734;52.778;6.798;2023-12-20T21:54:14;8.60;99.90
9389;DHT22;4734;52.778;6.798;2023-12-20T21:57:00;8.60;99.90
9389;DHT22;4734;52.778;6.798;2023-12-20T21:59:47;8.60;99.90
9389;DHT22;4734;52.778;6.798;2023-12-20T22:02:32;8.60;99.90
9389;DHT22;4734;52.778;6.798;2023-12-20T22:05:18;8.60;99.90
9389;DHT22;4734;52.778;6.798;2023-12-20T22:08:04;8.60;99.90
9389;DHT22;4734;52.778;6.798;2023-12-20T22:10:50;8.70;99.90
9389;DHT22;4734;52.778;6.798;2023-12-20T22:13:35;8.60;99.90
9389;DHT22;4734;52.778;6.798;2023-12-20T22:16:22;8.70;99.90
9389;DHT22;4734;52.778;6.798;2023-12-20T22:19:08;8.70;99.90
9389;DHT22;4734;52.778;6.798;2023-12-20T22:21:54;8.70;99.90
9389;DHT22;4734;52.778;6.798;2023-12-20T22:24:39;8.70;99.90
9389;DHT22;4734;52.778;6.798;2023-12-20T22:27:25;8.70;99.90
9389;DHT22;4734;52.778;6.798;2023-12-20T22:30:11;8.70;99.90
9389;DHT22;4734;52.778;6.798;2023-12-20T22:32:58;8.70;99.90